Time;durP1;ratioP1;P1;durP2;ratioP2;P2;SDS_P1;SDS_P2;PMS_P1;PMS_P2;Temp;Humidity;BMP_temperature;BMP_pressure;BME280_temperature;BME280_humidity;BME280_pressure;Samples;Min_cycle;Max_cycle;Signal;HPM_P1;HPM_P2
2022/04/10 00:01:36;;;;;;;8.37;2.00;;;;;;;;;;5012456;28;20217;-68
2022/04/10 00:04:01;;;;;;;4.87;1.90;;;;;;;;;;5027138;28;20189;-67
2022/04/10 00:06:27;;;;;;;10.23;2.23;;;;;;;;;;5014103;28;20233;-67
2022/04/10 00:08:53;;;;;;;9.60;1.57;;;;;;;;;;5027478;28;20235;-68
2022/04/10 00:11:18;;;;;;;7.27;2.00;;;;;;;;;;5025821;28;20245;-68
2022/04/10 00:13:44;;;;;;;5.17;2.00;;;;;;;;;;5022191;28;20494;-68
2022/04/10 00:16:10;;;;;;;8.83;1.80;;;;;;;;;;5023433;28;20201;-68
2022/04/10 00:18:36;;;;;;;7.30;1.90;;;;;;;;;;5008077;28;20182;-68
2022/04/10 00:21:02;;;;;;;7.60;1.73;;;;;;;;;;5022277;28;20194;-68
2022/04/10 00:23:27;;;;;;;9.87;2.50;;;;;;;;;;5024016;28;20197;-67
2022/04/10 00:25:53;;;;;;;9.17;2.10;;;;;;;;;;5021760;28;20194;-68
2022/04/10 00:28:18;;;;;;;11.37;2.53;;;;;;;;;;5026113;28;20193;-68
2022/04/10 00:30:43;;;;;;;10.20;1.90;;;;;;;;;;5024333;28;20210;-68
2022/04/10 00:33:09;;;;;;;9.93;2.67;;;;;;;;;;5023846;28;20208;-68
2022/04/10 00:35:34;;;;;;;10.23;2.33;;;;;;;;;;5023668;28;20197;-68
2022/04/10 00:38:00;;;;;;;11.30;2.57;;;;;;;;;;5012849;28;20205;-68
2022/04/10 00:40:25;;;;;;;7.80;2.50;;;;;;;;;;5019223;28;20228;-68
2022/04/10 00:42:51;;;;;;;12.50;2.00;;;;;;;;;;5028061;28;20244;-68
2022/04/10 00:45:18;;;;;;;9.40;2.20;;;;;;;;;;5027071;28;20228;-68
2022/04/10 00:47:45;;;;;;;10.17;2.30;;;;;;;;;;5025181;28;20214;-68
2022/04/10 00:50:11;;;;;;;15.50;2.03;;;;;;;;;;5024388;28;20241;-68
2022/04/10 00:52:38;;;;;;;6.83;1.60;;;;;;;;;;5013014;28;20190;-69
2022/04/10 00:55:04;;;;;;;6.67;1.97;;;;;;;;;;5025317;28;20269;-68
2022/04/10 00:57:29;;;;;;;13.00;2.60;;;;;;;;;;5018523;28;20205;-68
2022/04/10 00:59:55;;;;;;;7.50;2.00;;;;;;;;;;5026867;28;20487;-68
2022/04/10 01:02:20;;;;;;;16.67;2.57;;;;;;;;;;5019090;28;20200;-67
2022/04/10 01:04:48;;;;;;;8.47;2.30;;;;;;;;;;5022515;28;20265;-67
2022/04/10 01:07:15;;;;;;;12.70;1.87;;;;;;;;;;5023634;28;20308;-67
2022/04/10 01:09:41;;;;;;;9.77;1.93;;;;;;;;;;5026020;28;20179;-68
2022/04/10 01:12:10;;;;;;;10.23;2.20;;;;;;;;;;5015614;28;20247;-68
2022/04/10 01:14:36;;;;;;;11.60;2.00;;;;;;;;;;5019987;28;20186;-68
2022/04/10 01:17:02;;;;;;;6.30;2.50;;;;;;;;;;5023007;28;20178;-68
2022/04/10 01:19:28;;;;;;;8.33;2.30;;;;;;;;;;5027290;28;20178;-68
2022/04/10 01:21:59;;;;;;;7.73;2.27;;;;;;;;;;5024298;28;20780;-67
2022/04/10 01:24:25;;;;;;;5.43;2.27;;;;;;;;;;5021252;28;20194;-68
2022/04/10 01:26:51;;;;;;;9.20;2.23;;;;;;;;;;5021537;28;20229;-67
2022/04/10 01:29:16;;;;;;;13.30;3.23;;;;;;;;;;5025701;28;20535;-68
2022/04/10 01:31:43;;;;;;;10.20;1.97;;;;;;;;;;5021109;28;20209;-68
2022/04/10 01:34:13;;;;;;;17.03;2.63;;;;;;;;;;5021895;28;20268;-68
2022/04/10 01:36:39;;;;;;;10.40;2.00;;;;;;;;;;5021459;28;20561;-67
2022/04/10 01:39:06;;;;;;;10.07;2.43;;;;;;;;;;5028445;28;20251;-68
2022/04/10 01:41:34;;;;;;;8.07;2.20;;;;;;;;;;5029977;28;20513;-70
2022/04/10 01:44:00;;;;;;;6.90;1.93;;;;;;;;;;5027910;28;20332;-67
2022/04/10 01:46:29;;;;;;;18.90;2.90;;;;;;;;;;5020542;28;20294;-68
2022/04/10 01:48:54;;;;;;;9.20;2.60;;;;;;;;;;5022817;28;20194;-68
2022/04/10 01:51:20;;;;;;;11.67;2.70;;;;;;;;;;5022614;28;20183;-68
2022/04/10 01:53:46;;;;;;;4.03;1.70;;;;;;;;;;5029207;28;20256;-68
2022/04/10 01:56:11;;;;;;;12.70;2.30;;;;;;;;;;5020529;28;20182;-67
2022/04/10 01:58:39;;;;;;;14.80;2.90;;;;;;;;;;5029458;28;20182;-68
2022/04/10 02:01:09;;;;;;;10.20;2.43;;;;;;;;;;5024060;28;20193;-68
2022/04/10 02:03:35;;;;;;;10.37;2.73;;;;;;;;;;5023088;28;20268;-68
2022/04/10 02:06:02;;;;;;;10.13;2.37;;;;;;;;;;5023902;28;20244;-68
2022/04/10 02:08:29;;;;;;;15.17;2.63;;;;;;;;;;5028323;28;20624;-68
2022/04/10 02:10:54;;;;;;;14.57;2.70;;;;;;;;;;5022058;28;20222;-68
2022/04/10 02:13:20;;;;;;;11.83;2.53;;;;;;;;;;5019981;28;20196;-68
2022/04/10 02:15:46;;;;;;;12.03;2.50;;;;;;;;;;5019033;28;20488;-67
2022/04/10 02:18:11;;;;;;;10.03;2.47;;;;;;;;;;5020923;28;20735;-68
2022/04/10 02:20:37;;;;;;;10.93;2.90;;;;;;;;;;5010196;28;20245;-67
2022/04/10 02:23:02;;;;;;;12.97;2.77;;;;;;;;;;5023296;28;20699;-67
2022/04/10 02:25:27;;;;;;;9.93;2.20;;;;;;;;;;5022239;28;20273;-67
2022/04/10 02:27:53;;;;;;;14.83;2.43;;;;;;;;;;5028682;28;21118;-68
2022/04/10 02:30:18;;;;;;;9.70;2.40;;;;;;;;;;5012367;28;20670;-68
2022/04/10 02:32:44;;;;;;;9.97;2.87;;;;;;;;;;5026369;28;20189;-68
2022/04/10 02:35:10;;;;;;;7.27;2.13;;;;;;;;;;5023425;28;20190;-68
2022/04/10 02:37:36;;;;;;;8.97;2.40;;;;;;;;;;5026990;28;20197;-68
2022/04/10 02:40:05;;;;;;;14.83;3.30;;;;;;;;;;5026874;28;20569;-68
2022/04/10 02:42:33;;;;;;;18.50;3.07;;;;;;;;;;5019003;28;20585;-68
2022/04/10 02:44:59;;;;;;;8.73;2.43;;;;;;;;;;5019357;28;20658;-68
2022/04/10 02:47:25;;;;;;;13.43;2.60;;;;;;;;;;5024680;28;20218;-68
2022/04/10 02:49:50;;;;;;;10.20;2.93;;;;;;;;;;5023765;28;20243;-68
2022/04/10 02:52:15;;;;;;;13.23;2.53;;;;;;;;;;5022690;28;20197;-67
2022/04/10 02:54:41;;;;;;;6.50;2.67;;;;;;;;;;5028408;28;20182;-68
2022/04/10 02:57:06;;;;;;;14.00;2.83;;;;;;;;;;5022445;28;20182;-68
2022/04/10 02:59:32;;;;;;;12.07;2.80;;;;;;;;;;5028689;28;20736;-68
2022/04/10 03:01:57;;;;;;;10.87;3.07;;;;;;;;;;5014539;28;20183;-68
2022/04/10 03:04:22;;;;;;;9.23;2.77;;;;;;;;;;5023250;28;20216;-68
2022/04/10 03:06:47;;;;;;;8.93;2.80;;;;;;;;;;5019132;28;20245;-68
2022/04/10 03:09:13;;;;;;;9.33;2.53;;;;;;;;;;5019693;28;20225;-68
2022/04/10 03:11:38;;;;;;;14.40;3.10;;;;;;;;;;5017257;28;20226;-68
2022/04/10 03:14:03;;;;;;;14.67;3.00;;;;;;;;;;5019481;28;20197;-68
2022/04/10 03:16:29;;;;;;;10.83;2.40;;;;;;;;;;5023774;28;20198;-68
2022/04/10 03:18:54;;;;;;;9.20;2.60;;;;;;;;;;5009074;28;20183;-67
2022/04/10 03:21:20;;;;;;;12.33;2.60;;;;;;;;;;5011894;28;20657;-67
2022/04/10 03:23:45;;;;;;;8.70;2.70;;;;;;;;;;5025443;28;20273;-67
2022/04/10 03:26:11;;;;;;;10.37;2.20;;;;;;;;;;5017346;28;20190;-67
2022/04/10 03:28:36;;;;;;;9.70;2.43;;;;;;;;;;5027683;28;20178;-67
2022/04/10 03:31:02;;;;;;;6.67;2.37;;;;;;;;;;5023973;28;20571;-67
2022/04/10 03:33:27;;;;;;;12.33;2.47;;;;;;;;;;5022896;28;20190;-67
2022/04/10 03:35:53;;;;;;;13.47;2.27;;;;;;;;;;5012927;28;20629;-67
2022/04/10 03:38:19;;;;;;;8.17;2.43;;;;;;;;;;5014245;28;20187;-67
2022/04/10 03:40:44;;;;;;;10.13;2.77;;;;;;;;;;5017167;28;20202;-67
2022/04/10 03:43:11;;;;;;;12.27;3.07;;;;;;;;;;5020106;28;20202;-67
2022/04/10 03:45:40;;;;;;;10.50;2.50;;;;;;;;;;5008396;28;20650;-67
2022/04/10 03:48:06;;;;;;;14.17;2.57;;;;;;;;;;5008388;28;20214;-67
2022/04/10 03:50:33;;;;;;;9.53;2.43;;;;;;;;;;5009081;28;20189;-67
2022/04/10 03:53:02;;;;;;;9.73;2.30;;;;;;;;;;5019153;28;20182;-67
2022/04/10 03:55:28;;;;;;;10.47;2.40;;;;;;;;;;5022395;28;20182;-67
2022/04/10 03:57:54;;;;;;;7.27;2.60;;;;;;;;;;5014471;28;20672;-67
2022/04/10 04:00:19;;;;;;;7.47;2.33;;;;;;;;;;5015892;28;20205;-68
2022/04/10 04:02:45;;;;;;;11.70;2.03;;;;;;;;;;5015481;28;20549;-67
2022/04/10 04:05:11;;;;;;;18.57;2.97;;;;;;;;;;5027298;28;20190;-67
2022/04/10 04:07:37;;;;;;;8.80;2.50;;;;;;;;;;5024745;28;20316;-67
2022/04/10 04:10:04;;;;;;;8.90;2.30;;;;;;;;;;5023852;28;20279;-67
2022/04/10 04:12:29;;;;;;;7.53;2.03;;;;;;;;;;5022056;28;20506;-67
2022/04/10 04:14:55;;;;;;;13.37;2.17;;;;;;;;;;5024540;28;20190;-67
2022/04/10 04:17:20;;;;;;;7.67;2.30;;;;;;;;;;5026446;28;20181;-68
2022/04/10 04:19:49;;;;;;;10.17;3.00;;;;;;;;;;5027080;28;20525;-67
2022/04/10 04:22:15;;;;;;;8.60;2.10;;;;;;;;;;5015549;28;20185;-67
2022/04/10 04:24:40;;;;;;;5.83;2.03;;;;;;;;;;5024473;28;20201;-67
2022/04/10 04:27:06;;;;;;;8.10;1.73;;;;;;;;;;5023715;28;20202;-67
2022/04/10 04:29:31;;;;;;;7.70;1.70;;;;;;;;;;5027659;28;20217;-67
2022/04/10 04:31:56;;;;;;;3.17;1.70;;;;;;;;;;5018487;28;20566;-67
2022/04/10 04:34:22;;;;;;;6.43;1.97;;;;;;;;;;5022876;28;20198;-70
2022/04/10 04:36:47;;;;;;;10.57;1.70;;;;;;;;;;5020705;28;20296;-67
2022/04/10 04:39:13;;;;;;;8.50;1.67;;;;;;;;;;5014055;28;20200;-67
2022/04/10 04:41:38;;;;;;;3.03;1.53;;;;;;;;;;5019017;28;20685;-67
2022/04/10 04:44:04;;;;;;;7.20;1.70;;;;;;;;;;5021659;28;20234;-67
2022/04/10 04:46:30;;;;;;;4.67;1.50;;;;;;;;;;5017185;28;20202;-67
2022/04/10 04:48:55;;;;;;;8.80;1.60;;;;;;;;;;5021061;28;20252;-67
2022/04/10 04:51:21;;;;;;;8.23;1.50;;;;;;;;;;5022039;28;20182;-67
2022/04/10 04:53:46;;;;;;;6.73;2.07;;;;;;;;;;5019392;28;20194;-66
2022/04/10 04:56:11;;;;;;;8.37;1.77;;;;;;;;;;5022047;28;20182;-67
2022/04/10 04:58:37;;;;;;;9.07;1.47;;;;;;;;;;5023912;28;20186;-67
2022/04/10 05:01:02;;;;;;;6.00;1.50;;;;;;;;;;5017546;28;20190;-67
2022/04/10 05:03:28;;;;;;;7.10;1.47;;;;;;;;;;5030007;28;20193;-67
2022/04/10 05:05:53;;;;;;;9.53;1.70;;;;;;;;;;5019024;28;20654;-67
2022/04/10 05:08:20;;;;;;;11.83;1.80;;;;;;;;;;5028202;28;20206;-67
2022/04/10 05:10:45;;;;;;;5.87;1.20;;;;;;;;;;5031154;28;20230;-67
2022/04/10 05:13:10;;;;;;;8.13;2.03;;;;;;;;;;5025198;28;20266;-67
2022/04/10 05:15:36;;;;;;;5.97;1.60;;;;;;;;;;5030886;28;20178;-67
2022/04/10 05:18:01;;;;;;;5.03;1.73;;;;;;;;;;5018339;28;20542;-67
2022/04/10 05:20:27;;;;;;;5.30;1.40;;;;;;;;;;5021695;28;20553;-67
2022/04/10 05:22:52;;;;;;;8.00;2.07;;;;;;;;;;5027630;28;20185;-66
2022/04/10 05:25:18;;;;;;;12.53;1.60;;;;;;;;;;5027149;28;20646;-67
2022/04/10 05:27:43;;;;;;;8.90;1.50;;;;;;;;;;5027120;28;20202;-66
2022/04/10 05:30:09;;;;;;;10.23;1.47;;;;;;;;;;5026924;28;20182;-67
2022/04/10 05:32:34;;;;;;;5.57;1.23;;;;;;;;;;5026229;28;20265;-68
2022/04/10 05:34:59;;;;;;;6.03;1.20;;;;;;;;;;5023786;28;20274;-66
2022/04/10 05:37:25;;;;;;;10.50;1.63;;;;;;;;;;5026201;28;20225;-67
2022/04/10 05:39:51;;;;;;;4.83;1.00;;;;;;;;;;5027533;28;20182;-67
2022/04/10 05:42:16;;;;;;;5.93;1.50;;;;;;;;;;5025019;28;20205;-67
2022/04/10 05:44:41;;;;;;;5.10;1.50;;;;;;;;;;5028663;28;20189;-67
2022/04/10 05:47:07;;;;;;;5.43;1.13;;;;;;;;;;5024637;28;20621;-67
2022/04/10 05:49:32;;;;;;;7.47;1.43;;;;;;;;;;5026105;28;20182;-67
2022/04/10 05:51:58;;;;;;;5.33;1.17;;;;;;;;;;5026863;28;20178;-67
2022/04/10 05:54:23;;;;;;;5.03;1.20;;;;;;;;;;5029063;28;20236;-67
2022/04/10 05:56:48;;;;;;;4.07;1.10;;;;;;;;;;5026222;28;20608;-67
2022/04/10 05:59:13;;;;;;;5.97;1.43;;;;;;;;;;5027595;28;20625;-67
2022/04/10 06:01:39;;;;;;;6.53;1.40;;;;;;;;;;5025315;28;20547;-67
2022/04/10 06:04:04;;;;;;;11.63;1.77;;;;;;;;;;5024595;28;20218;-67
2022/04/10 06:06:30;;;;;;;8.43;1.43;;;;;;;;;;5026855;28;20728;-68
2022/04/10 06:08:55;;;;;;;4.00;1.20;;;;;;;;;;5024210;28;20266;-67
2022/04/10 06:11:20;;;;;;;7.83;2.20;;;;;;;;;;5026865;28;20254;-68
2022/04/10 06:13:47;;;;;;;3.37;0.93;;;;;;;;;;5023351;28;20593;-68
2022/04/10 06:16:12;;;;;;;3.27;1.23;;;;;;;;;;5026785;28;20194;-68
2022/04/10 06:18:38;;;;;;;5.63;1.20;;;;;;;;;;5025401;28;20240;-68
2022/04/10 06:21:03;;;;;;;9.30;1.27;;;;;;;;;;5027816;28;20189;-68
2022/04/10 06:23:28;;;;;;;5.87;1.00;;;;;;;;;;5026056;28;20185;-68
2022/04/10 06:25:54;;;;;;;5.93;1.00;;;;;;;;;;5029556;28;20559;-69
2022/04/10 06:28:19;;;;;;;6.70;1.07;;;;;;;;;;5026788;28;20397;-69
2022/04/10 06:30:45;;;;;;;4.60;0.80;;;;;;;;;;5028984;28;20702;-70
2022/04/10 06:33:12;;;;;;;3.30;0.83;;;;;;;;;;5025821;28;20193;-70
2022/04/10 06:35:39;;;;;;;1.97;0.83;;;;;;;;;;5027000;28;20189;-70
2022/04/10 06:38:04;;;;;;;3.03;0.93;;;;;;;;;;5027815;28;20198;-70
2022/04/10 06:40:30;;;;;;;1.70;0.87;;;;;;;;;;5027643;28;20190;-70
2022/04/10 06:42:55;;;;;;;5.97;1.07;;;;;;;;;;5026060;28;20658;-70
2022/04/10 06:45:21;;;;;;;4.47;1.00;;;;;;;;;;5025395;28;20706;-71
2022/04/10 06:47:46;;;;;;;2.70;1.10;;;;;;;;;;5026523;28;20210;-71
2022/04/10 06:50:12;;;;;;;4.73;0.90;;;;;;;;;;5026714;28;20205;-71
2022/04/10 06:52:38;;;;;;;3.07;0.90;;;;;;;;;;5028326;28;20708;-71
2022/04/10 06:55:03;;;;;;;5.27;1.23;;;;;;;;;;5026640;28;20548;-71
2022/04/10 06:57:29;;;;;;;3.57;1.00;;;;;;;;;;5025072;28;20196;-71
2022/04/10 06:59:54;;;;;;;7.90;1.00;;;;;;;;;;5024681;28;20181;-71
2022/04/10 07:02:19;;;;;;;6.23;1.20;;;;;;;;;;5025300;28;20185;-70
2022/04/10 07:04:46;;;;;;;4.30;0.97;;;;;;;;;;5025570;28;20186;-70
2022/04/10 07:07:11;;;;;;;5.53;1.30;;;;;;;;;;5027334;28;20206;-70
2022/04/10 07:09:36;;;;;;;5.47;1.00;;;;;;;;;;5026109;28;20186;-71
2022/04/10 07:12:02;;;;;;;2.77;0.90;;;;;;;;;;5026710;28;20642;-70
2022/04/10 07:14:27;;;;;;;3.13;0.87;;;;;;;;;;5026391;28;20186;-69
2022/04/10 07:16:52;;;;;;;3.23;0.90;;;;;;;;;;5031206;28;20167;-70
2022/04/10 07:19:18;;;;;;;1.20;0.80;;;;;;;;;;5025018;28;20182;-70
2022/04/10 07:24:28;;;;;;;5.50;1.20;;;;;;;;;;5020952;28;20553;-70
2022/04/10 07:26:54;;;;;;;5.83;0.90;;;;;;;;;;5020112;28;20202;-69
2022/04/10 07:29:20;;;;;;;3.97;0.93;;;;;;;;;;5020219;28;20193;-69
2022/04/10 07:31:45;;;;;;;2.57;0.97;;;;;;;;;;5023819;28;20811;-70
2022/04/10 07:34:10;;;;;;;3.30;0.90;;;;;;;;;;5027221;28;20190;-70
2022/04/10 07:36:36;;;;;;;4.37;1.17;;;;;;;;;;5023276;28;20181;-71
2022/04/10 07:39:03;;;;;;;5.37;1.17;;;;;;;;;;5017940;28;20197;-69
2022/04/10 07:41:28;;;;;;;6.30;0.90;;;;;;;;;;5025533;28;20197;-69
2022/04/10 07:43:53;;;;;;;6.37;1.50;;;;;;;;;;5027535;28;20181;-71
2022/04/10 07:49:04;;;;;;;6.10;1.20;;;;;;;;;;5019253;28;20193;-70
2022/04/10 07:51:29;;;;;;;4.97;0.87;;;;;;;;;;5021358;28;20657;-70
2022/04/10 07:53:56;;;;;;;9.53;1.30;;;;;;;;;;5017246;28;20205;-69
2022/04/10 07:56:22;;;;;;;4.00;1.73;;;;;;;;;;5026543;28;20194;-69
2022/04/10 07:58:48;;;;;;;6.07;0.80;;;;;;;;;;5026277;28;20264;-69
2022/04/10 08:01:13;;;;;;;4.20;1.10;;;;;;;;;;5024785;28;20269;-69
2022/04/10 08:03:38;;;;;;;4.83;1.63;;;;;;;;;;5017233;28;20173;-69
2022/04/10 08:06:04;;;;;;;6.10;0.90;;;;;;;;;;5018179;28;20257;-69
2022/04/10 08:08:29;;;;;;;3.13;1.00;;;;;;;;;;5022883;28;20237;-69
2022/04/10 08:10:54;;;;;;;1.63;0.70;;;;;;;;;;5019084;28;20237;-69
2022/04/10 08:13:20;;;;;;;6.87;1.37;;;;;;;;;;5021842;28;20190;-69
2022/04/10 08:15:46;;;;;;;4.47;1.20;;;;;;;;;;5021242;28;20208;-69
2022/04/10 08:18:11;;;;;;;3.43;0.80;;;;;;;;;;5023661;28;20185;-69
2022/04/10 08:20:37;;;;;;;0.83;0.53;;;;;;;;;;5023393;28;20186;-69
2022/04/10 08:23:02;;;;;;;3.10;0.70;;;;;;;;;;5022059;28;20185;-69
2022/04/10 08:25:28;;;;;;;2.30;0.83;;;;;;;;;;5024615;28;20182;-68
2022/04/10 08:27:54;;;;;;;3.47;1.00;;;;;;;;;;5021052;28;20289;-69
2022/04/10 08:30:19;;;;;;;2.83;0.80;;;;;;;;;;5022614;28;20361;-69
2022/04/10 08:32:45;;;;;;;3.70;0.73;;;;;;;;;;5021574;28;20185;-69
2022/04/10 08:35:11;;;;;;;3.93;0.73;;;;;;;;;;5018518;28;20240;-68
2022/04/10 08:37:38;;;;;;;6.33;0.77;;;;;;;;;;5020719;28;20205;-68
2022/04/10 08:40:04;;;;;;;4.30;0.73;;;;;;;;;;5022007;28;20599;-69
2022/04/10 08:42:29;;;;;;;7.27;1.00;;;;;;;;;;5023595;28;20182;-68
2022/04/10 08:44:56;;;;;;;3.63;1.20;;;;;;;;;;5024371;28;20177;-68
2022/04/10 08:47:21;;;;;;;8.03;1.00;;;;;;;;;;5019904;28;20202;-69
2022/04/10 08:49:48;;;;;;;4.13;0.90;;;;;;;;;;5024267;28;20186;-67
2022/04/10 08:52:16;;;;;;;4.63;1.13;;;;;;;;;;5022127;28;20181;-68
2022/04/10 08:54:42;;;;;;;4.70;1.10;;;;;;;;;;5021630;28;20194;-68
2022/04/10 08:57:07;;;;;;;7.23;0.97;;;;;;;;;;5010938;28;20719;-68
2022/04/10 08:59:33;;;;;;;4.57;1.00;;;;;;;;;;5023319;28;20194;-68
2022/04/10 09:01:58;;;;;;;3.23;0.80;;;;;;;;;;5021807;28;20174;-68
2022/04/10 09:04:25;;;;;;;2.67;1.10;;;;;;;;;;5024233;28;20190;-68
2022/04/10 09:07:04;;;;;;;2.87;0.70;;;;;;;;;;5024011;28;20194;-68
2022/04/10 09:09:32;;;;;;;8.63;0.90;;;;;;;;;;5023732;28;20239;-68
2022/04/10 09:11:58;;;;;;;7.20;0.80;;;;;;;;;;5021781;28;20234;-68
2022/04/10 09:14:25;;;;;;;5.17;0.80;;;;;;;;;;5018652;28;20196;-68
2022/04/10 09:17:11;;;;;;;5.00;1.27;;;;;;;;;;5005457;28;20623;-69
2022/04/10 09:19:38;;;;;;;7.80;0.80;;;;;;;;;;5020241;28;20635;-68
2022/04/10 09:22:26;;;;;;;5.73;0.80;;;;;;;;;;5018370;28;20666;-68
2022/04/10 09:25:16;;;;;;;1.77;0.60;;;;;;;;;;5018155;28;20273;-69
2022/04/10 09:27:49;;;;;;;2.40;0.50;;;;;;;;;;5010822;28;20456;-68
2022/04/10 09:30:16;;;;;;;2.73;0.43;;;;;;;;;;5015109;28;20634;-68
2022/04/10 09:32:47;;;;;;;3.43;0.60;;;;;;;;;;5024872;28;20269;-68
2022/04/10 09:35:14;;;;;;;4.23;0.60;;;;;;;;;;5020148;28;20634;-68
2022/04/10 09:37:49;;;;;;;3.47;0.60;;;;;;;;;;5020459;28;20178;-69
2022/04/10 09:40:27;;;;;;;4.60;1.03;;;;;;;;;;5022811;28;20201;-68
2022/04/10 09:43:07;;;;;;;2.03;0.67;;;;;;;;;;5025411;28;20654;-68
2022/04/10 09:45:35;;;;;;;6.33;1.50;;;;;;;;;;5025703;28;20182;-68
2022/04/10 09:48:24;;;;;;;7.27;1.23;;;;;;;;;;5022302;28;20206;-69
2022/04/10 09:50:52;;;;;;;4.93;0.83;;;;;;;;;;5013802;28;20293;-68
2022/04/10 09:53:18;;;;;;;3.67;0.80;;;;;;;;;;5016658;28;20541;-68
2022/04/10 09:55:44;;;;;;;5.67;1.10;;;;;;;;;;5016152;28;20198;-68
2022/04/10 09:58:13;;;;;;;4.03;0.80;;;;;;;;;;5028161;28;20190;-67
2022/04/10 10:00:42;;;;;;;4.47;1.00;;;;;;;;;;5026014;28;20179;-66
2022/04/10 10:03:09;;;;;;;4.67;0.73;;;;;;;;;;5012219;28;20186;-67
2022/04/10 10:05:35;;;;;;;2.30;0.67;;;;;;;;;;5027269;28;20217;-67
2022/04/10 10:08:01;;;;;;;4.13;0.68;;;;;;;;;;5024381;28;20589;-68
2022/04/10 10:10:34;;;;;;;6.83;0.93;;;;;;;;;;5026585;28;20866;-68
2022/04/10 10:13:08;;;;;;;11.77;1.25;;;;;;;;;;5015414;28;20264;-67
2022/04/10 10:15:36;;;;;;;5.20;0.63;;;;;;;;;;5023687;28;20403;-67
2022/04/10 10:18:05;;;;;;;5.78;0.90;;;;;;;;;;5016600;28;20289;-67
2022/04/10 10:20:30;;;;;;;6.70;0.70;;;;;;;;;;5027174;28;20193;-67
2022/04/10 10:22:57;;;;;;;6.77;0.90;;;;;;;;;;5022117;28;20178;-67
2022/04/10 10:25:25;;;;;;;5.53;1.05;;;;;;;;;;5026641;28;20280;-67
2022/04/10 10:28:19;;;;;;;5.83;1.47;;;;;;;;;;5030062;28;20217;-68
2022/04/10 10:31:02;;;;;;;8.55;0.88;;;;;;;;;;5015730;28;20602;-68
2022/04/10 10:33:30;;;;;;;6.75;1.00;;;;;;;;;;5024804;28;20182;-68
2022/04/10 10:36:00;;;;;;;7.35;0.88;;;;;;;;;;5022417;28;20178;-68
2022/04/10 10:38:30;;;;;;;4.10;0.70;;;;;;;;;;5013356;28;20210;-69
2022/04/10 10:41:17;;;;;;;3.92;0.95;;;;;;;;;;5026579;28;20178;-67
2022/04/10 10:43:43;;;;;;;7.72;0.93;;;;;;;;;;5023730;28;20178;-67
2022/04/10 10:46:24;;;;;;;3.33;0.85;;;;;;;;;;5017329;28;20193;-67
2022/04/10 10:49:19;;;;;;;5.80;1.48;;;;;;;;;;5019897;28;20293;-67
2022/04/10 10:51:45;;;;;;;6.40;0.75;;;;;;;;;;5025566;28;20182;-67
2022/04/10 10:54:18;;;;;;;6.50;0.75;;;;;;;;;;5018994;28;20280;-68
2022/04/10 10:56:46;;;;;;;2.38;0.90;;;;;;;;;;5017414;28;20182;-67
2022/04/10 10:59:25;;;;;;;4.05;0.90;;;;;;;;;;5016935;28;20183;-66
2022/04/10 11:02:08;;;;;;;6.80;1.10;;;;;;;;;;5026551;28;20311;-69
2022/04/10 11:04:38;;;;;;;4.18;0.80;;;;;;;;;;5018932;28;20178;-68
2022/04/10 11:07:12;;;;;;;3.63;0.60;;;;;;;;;;5024140;28;20746;-67
2022/04/10 11:09:54;;;;;;;6.20;0.88;;;;;;;;;;5027102;28;20654;-67
2022/04/10 11:12:21;;;;;;;5.00;0.90;;;;;;;;;;5009490;28;20325;-67
2022/04/10 11:14:50;;;;;;;2.97;0.70;;;;;;;;;;5026090;28;20175;-67
2022/04/10 11:17:17;;;;;;;3.63;0.55;;;;;;;;;;5016087;28;20491;-67
2022/04/10 11:19:46;;;;;;;3.45;0.60;;;;;;;;;;5016045;28;20202;-67
2022/04/10 11:22:20;;;;;;;3.15;0.70;;;;;;;;;;5013724;28;20305;-67
2022/04/10 11:24:50;;;;;;;2.80;0.73;;;;;;;;;;5026412;28;20638;-67
2022/04/10 11:27:42;;;;;;;4.53;0.75;;;;;;;;;;5027224;28;20570;-67
2022/04/10 11:30:08;;;;;;;3.28;0.60;;;;;;;;;;5026770;28;20210;-67
2022/04/10 11:33:04;;;;;;;6.43;0.85;;;;;;;;;;5023853;28;20190;-67
2022/04/10 11:35:38;;;;;;;4.22;0.88;;;;;;;;;;5009866;28;20198;-67
2022/04/10 11:38:07;;;;;;;5.20;0.80;;;;;;;;;;5025422;28;20552;-67
2022/04/10 11:40:35;;;;;;;4.55;0.70;;;;;;;;;;5024219;28;20174;-67
2022/04/10 11:43:03;;;;;;;3.55;0.80;;;;;;;;;;5027566;28;20188;-67
2022/04/10 11:45:31;;;;;;;6.72;1.23;;;;;;;;;;5019313;28;20277;-68
2022/04/10 11:47:57;;;;;;;4.10;0.70;;;;;;;;;;5020787;28;20209;-67
2022/04/10 11:50:25;;;;;;;3.22;0.50;;;;;;;;;;5019266;28;20604;-68
2022/04/10 11:53:06;;;;;;;4.88;0.70;;;;;;;;;;5019673;28;20177;-67
2022/04/10 11:55:49;;;;;;;5.10;0.63;;;;;;;;;;5027267;28;20201;-67
2022/04/10 11:58:21;;;;;;;5.70;0.65;;;;;;;;;;5016946;28;20208;-67
2022/04/10 12:00:57;;;;;;;7.07;1.08;;;;;;;;;;5016709;28;20261;-69
2022/04/10 12:03:33;;;;;;;3.25;0.60;;;;;;;;;;5019803;28;20178;-66
2022/04/10 12:05:58;;;;;;;7.00;1.00;;;;;;;;;;5019180;28;20207;-70
2022/04/10 12:08:25;;;;;;;4.22;0.57;;;;;;;;;;5023858;28;20210;-68
2022/04/10 12:10:54;;;;;;;4.18;0.57;;;;;;;;;;5014272;28;20222;-68
2022/04/10 12:13:19;;;;;;;3.25;0.57;;;;;;;;;;5024127;28;20624;-67
2022/04/10 12:15:45;;;;;;;3.22;0.85;;;;;;;;;;5012793;28;20210;-67
2022/04/10 12:18:13;;;;;;;3.08;0.52;;;;;;;;;;5017029;28;20244;-67
2022/04/10 12:20:44;;;;;;;3.05;0.60;;;;;;;;;;5019601;28;20676;-67
2022/04/10 12:23:17;;;;;;;5.60;0.82;;;;;;;;;;5022532;28;20190;-67
2022/04/10 12:25:42;;;;;;;5.45;1.20;;;;;;;;;;5025234;28;20244;-67
2022/04/10 12:28:08;;;;;;;5.75;0.88;;;;;;;;;;5025468;28;20754;-68
2022/04/10 12:30:37;;;;;;;2.00;0.70;;;;;;;;;;5023650;28;20673;-67
2022/04/10 12:33:04;;;;;;;2.33;0.52;;;;;;;;;;5023794;28;20208;-68
2022/04/10 12:35:43;;;;;;;6.43;0.80;;;;;;;;;;5022848;28;20700;-67
2022/04/10 12:38:10;;;;;;;2.80;0.55;;;;;;;;;;5022508;28;20257;-67
2022/04/10 12:40:36;;;;;;;3.80;0.70;;;;;;;;;;5020398;28;20634;-67
2022/04/10 12:43:04;;;;;;;5.63;0.60;;;;;;;;;;5022030;28;20308;-67
2022/04/10 12:45:31;;;;;;;3.97;0.65;;;;;;;;;;5022478;28;20240;-67
2022/04/10 12:47:57;;;;;;;3.30;0.75;;;;;;;;;;5023154;28;20280;-67
2022/04/10 12:50:25;;;;;;;4.45;0.70;;;;;;;;;;5022090;28;20182;-69
2022/04/10 12:52:55;;;;;;;7.38;0.90;;;;;;;;;;5022888;28;20277;-67
2022/04/10 12:55:24;;;;;;;2.10;0.60;;;;;;;;;;5024180;28;20186;-67
2022/04/10 12:57:57;;;;;;;4.28;0.63;;;;;;;;;;5024636;28;20174;-67
2022/04/10 13:00:31;;;;;;;3.15;0.40;;;;;;;;;;5023996;28;20232;-67
2022/04/10 13:02:58;;;;;;;5.55;0.77;;;;;;;;;;5019500;28;20654;-67
2022/04/10 13:05:24;;;;;;;4.40;0.60;;;;;;;;;;5025409;28;20667;-67
2022/04/10 13:07:57;;;;;;;1.77;0.50;;;;;;;;;;5024507;28;20289;-67
2022/04/10 13:10:23;;;;;;;2.97;0.50;;;;;;;;;;5023730;28;20233;-67
2022/04/10 13:12:48;;;;;;;2.05;0.70;;;;;;;;;;5023190;28;20673;-67
2022/04/10 13:15:29;;;;;;;4.03;0.68;;;;;;;;;;5021810;28;20868;-67
2022/04/10 13:17:58;;;;;;;5.22;0.80;;;;;;;;;;5022018;28;20182;-67
2022/04/10 13:20:25;;;;;;;3.05;0.65;;;;;;;;;;5027269;28;20178;-67
2022/04/10 13:22:50;;;;;;;4.47;0.80;;;;;;;;;;5027296;28;20596;-67
2022/04/10 13:25:16;;;;;;;4.03;1.15;;;;;;;;;;5024292;28;20179;-66
2022/04/10 13:27:41;;;;;;;3.22;0.55;;;;;;;;;;5027358;28;20197;-66
2022/04/10 13:30:07;;;;;;;2.33;0.63;;;;;;;;;;5025884;28;20247;-66
2022/04/10 13:32:32;;;;;;;1.65;0.50;;;;;;;;;;5029091;28;20170;-68
2022/04/10 13:34:58;;;;;;;4.18;0.50;;;;;;;;;;5026971;28;20186;-67
2022/04/10 13:37:25;;;;;;;2.65;0.60;;;;;;;;;;5023854;28;20182;-67
2022/04/10 13:39:51;;;;;;;3.17;1.00;;;;;;;;;;5026390;28;20182;-67
2022/04/10 13:42:16;;;;;;;2.90;0.50;;;;;;;;;;5023685;28;20186;-67
2022/04/10 13:44:41;;;;;;;2.08;0.40;;;;;;;;;;5024338;28;20182;-68
2022/04/10 13:47:07;;;;;;;3.08;0.57;;;;;;;;;;5026586;28;20202;-68
2022/04/10 13:49:32;;;;;;;2.53;0.40;;;;;;;;;;5025374;28;20189;-68
2022/04/10 13:52:01;;;;;;;1.50;0.50;;;;;;;;;;5027300;28;20174;-68
2022/04/10 13:54:27;;;;;;;2.33;0.50;;;;;;;;;;5027064;28;20262;-68
2022/04/10 13:56:52;;;;;;;1.15;0.50;;;;;;;;;;5026834;28;20175;-68
2022/04/10 13:59:17;;;;;;;2.30;0.57;;;;;;;;;;5025088;28;20289;-68
2022/04/10 14:01:43;;;;;;;1.73;0.57;;;;;;;;;;5026111;28;20182;-67
2022/04/10 14:04:08;;;;;;;3.95;0.63;;;;;;;;;;5026096;28;20174;-68
2022/04/10 14:06:34;;;;;;;1.77;0.47;;;;;;;;;;5022213;28;20186;-67
2022/04/10 14:08:59;;;;;;;2.17;0.70;;;;;;;;;;5022707;28;20194;-68
2022/04/10 14:11:28;;;;;;;3.08;0.70;;;;;;;;;;5023687;28;20647;-67
2022/04/10 14:13:54;;;;;;;4.10;0.70;;;;;;;;;;5024509;28;20189;-67
2022/04/10 14:16:19;;;;;;;4.93;0.52;;;;;;;;;;5021595;28;20210;-67
2022/04/10 14:18:45;;;;;;;3.85;0.50;;;;;;;;;;5022760;28;20268;-67
2022/04/10 14:21:11;;;;;;;4.35;0.65;;;;;;;;;;5021799;28;20554;-67
2022/04/10 14:23:36;;;;;;;0.82;0.30;;;;;;;;;;5025950;28;20174;-67
2022/04/10 14:26:02;;;;;;;2.47;0.52;;;;;;;;;;5025222;28;20194;-67
2022/04/10 14:28:27;;;;;;;1.65;0.47;;;;;;;;;;5024654;28;20206;-67
2022/04/10 14:30:53;;;;;;;4.63;0.80;;;;;;;;;;5024454;28;20213;-67
2022/04/10 14:33:19;;;;;;;1.73;0.50;;;;;;;;;;5025878;28;20186;-67
2022/04/10 14:35:44;;;;;;;1.48;0.32;;;;;;;;;;5023525;28;20409;-67
2022/04/10 14:38:13;;;;;;;3.22;0.40;;;;;;;;;;5027956;28;20194;-68
2022/04/10 14:40:41;;;;;;;2.80;0.43;;;;;;;;;;5024902;28;20255;-67
2022/04/10 14:43:07;;;;;;;4.20;0.60;;;;;;;;;;5027640;28;20574;-67
2022/04/10 14:45:32;;;;;;;2.67;0.73;;;;;;;;;;5026863;28;20186;-67
2022/04/10 14:47:58;;;;;;;2.30;0.35;;;;;;;;;;5023263;28;20708;-67